Time;durP1;ratioP1;P1;durP2;ratioP2;P2;SDS_P1;SDS_P2;PMS_P1;PMS_P2;Temp;Humidity;BMP_temperature;BMP_pressure;BME280_temperature;BME280_humidity;BME280_pressure;Samples;Min_cycle;Max_cycle;Signal;HPM_P1;HPM_P2
2022/11/08 00:01:32;;;;;;;14.27;7.47;;;;;;;9.48;93.77;98098.13;5138430;23;20635;-90
2022/11/08 00:03:35;;;;;;;11.60;7.73;;;;;;;9.43;93.58;98092.38;5113309;23;20642;-90
2022/11/08 00:15:08;;;;;;;7.67;6.87;;;;;;;9.35;93.47;98086.00;5114526;23;21094;-90
2022/11/08 00:17:11;;;;;;;9.47;6.67;;;;;;;9.33;94.49;98086.09;5113831;23;20589;-90
2022/11/08 00:19:14;;;;;;;16.25;10.10;;;;;;;9.31;94.26;98085.34;5114887;23;20613;-90
2022/11/08 00:21:17;;;;;;;14.80;7.70;;;;;;;9.29;94.24;98081.16;5114901;23;20263;-90
2022/11/08 00:23:20;;;;;;;12.10;8.30;;;;;;;9.28;94.61;98092.53;5139091;23;21115;-91
2022/11/08 00:25:23;;;;;;;13.53;7.70;;;;;;;9.25;95.24;98085.75;5113531;23;20590;-90
2022/11/08 00:27:27;;;;;;;14.60;8.40;;;;;;;9.21;94.35;98086.84;5114245;23;21208;-89
2022/11/08 00:29:30;;;;;;;13.77;7.50;;;;;;;9.17;94.15;98090.59;5114011;23;20900;-90
2022/11/08 00:31:34;;;;;;;10.03;7.47;;;;;;;9.15;94.18;98089.00;5114867;23;20654;-90
2022/11/08 00:33:37;;;;;;;11.60;7.87;;;;;;;9.15;94.34;98095.03;5141163;22;20573;-90
2022/11/08 00:35:40;;;;;;;13.87;8.13;;;;;;;9.12;94.52;98091.81;5114220;23;20951;-90
2022/11/08 00:37:43;;;;;;;9.60;7.40;;;;;;;9.11;94.26;98083.19;5139390;23;20660;-90
2022/11/08 00:39:47;;;;;;;12.83;6.90;;;;;;;9.09;93.87;98077.22;5114557;23;20581;-90
2022/11/08 00:41:50;;;;;;;8.60;6.65;;;;;;;9.06;94.08;98079.19;5139495;23;20565;-90
2022/11/08 00:43:53;;;;;;;8.68;6.05;;;;;;;9.03;93.32;98075.00;5114140;23;20182;-90
2022/11/08 00:45:56;;;;;;;10.77;6.43;;;;;;;9.02;93.71;98075.09;5115319;23;20270;-91
2022/11/08 00:48:00;;;;;;;12.43;6.78;;;;;;;9.01;93.39;98073.44;5114775;23;20637;-91
2022/11/08 00:50:04;;;;;;;8.70;5.60;;;;;;;8.97;93.54;98072.78;5114595;23;20178;-91
2022/11/08 00:52:07;;;;;;;9.17;6.17;;;;;;;8.97;93.82;98072.78;5139333;23;20174;-90
2022/11/08 00:54:13;;;;;;;7.47;5.90;;;;;;;8.96;93.92;98067.72;5137592;23;20612;-90
2022/11/08 00:56:17;;;;;;;8.37;5.83;;;;;;;8.97;93.52;98074.56;5112995;23;20590;-91
2022/11/08 00:58:20;;;;;;;7.67;5.40;;;;;;;8.96;93.04;98068.53;5138243;23;20569;-90
2022/11/08 01:00:29;;;;;;;6.90;5.45;;;;;;;8.94;93.72;98062.59;5113205;23;20669;-90
2022/11/08 01:02:32;;;;;;;8.80;5.40;;;;;;;8.93;93.74;98065.28;5139149;23;20182;-90
2022/11/08 01:04:36;;;;;;;9.00;6.00;;;;;;;8.92;93.50;98059.22;5114316;23;20191;-90
2022/11/08 01:06:40;;;;;;;7.60;4.90;;;;;;;8.92;93.94;98054.97;5113738;23;20660;-90
2022/11/08 01:08:43;;;;;;;7.20;5.00;;;;;;;8.93;94.43;98065.28;5137832;23;20671;-90
2022/11/08 01:10:48;;;;;;;8.53;5.50;;;;;;;8.91;94.05;98055.91;5113732;23;20592;-90
2022/11/08 01:12:51;;;;;;;10.50;4.73;;;;;;;8.92;94.00;98054.97;5137342;23;20727;-90
2022/11/08 01:14:54;;;;;;;5.60;4.83;;;;;;;8.91;93.94;98055.91;5138083;23;20604;-90
2022/11/08 01:16:58;;;;;;;5.83;4.63;;;;;;;8.90;94.15;98052.47;5138619;23;20576;-90
2022/11/08 01:19:01;;;;;;;7.25;5.10;;;;;;;8.90;94.32;98051.63;5112008;23;20585;-90
2022/11/08 01:21:06;;;;;;;7.70;5.30;;;;;;;8.90;94.20;98046.41;5113413;23;20179;-90
2022/11/08 01:23:10;;;;;;;9.15;5.10;;;;;;;8.87;93.87;98051.81;5138390;23;20580;-90
2022/11/08 01:25:13;;;;;;;8.73;6.33;;;;;;;8.86;93.72;98040.59;5138558;23;20224;-90
2022/11/08 01:27:16;;;;;;;10.90;5.10;;;;;;;8.84;93.99;98047.66;5137945;23;20609;-91
2022/11/08 01:29:20;;;;;;;6.53;4.70;;;;;;;8.84;93.47;98045.06;5113377;23;20652;-90
2022/11/08 01:31:24;;;;;;;9.82;5.25;;;;;;;8.81;94.01;98040.06;5112290;23;21180;-90
2022/11/08 01:33:28;;;;;;;6.75;5.22;;;;;;;8.80;93.59;98037.53;5112444;23;20182;-90
2022/11/08 01:35:31;;;;;;;7.80;4.63;;;;;;;8.79;93.23;98043.66;5164107;23;20197;-91
2022/11/08 01:37:35;;;;;;;5.33;4.77;;;;;;;8.78;93.61;98041.97;5113304;23;21180;-90
2022/11/08 01:39:38;;;;;;;7.57;4.57;;;;;;;8.76;92.96;98033.44;5137806;23;20660;-90
2022/11/08 01:41:42;;;;;;;8.82;5.05;;;;;;;8.74;93.03;98030.94;5137657;23;20581;-90
2022/11/08 01:43:46;;;;;;;11.07;5.65;;;;;;;8.73;94.10;98028.44;5113579;23;20185;-90
2022/11/08 01:46:37;;;;;;;10.07;6.00;;;;;;;8.71;93.19;98025.94;5139971;23;20658;-90
2022/11/08 01:48:43;;;;;;;7.75;5.38;;;;;;;8.69;93.23;98033.00;5099951;23;20625;-90
2022/11/08 01:50:46;;;;;;;11.23;5.45;;;;;;;8.66;93.03;98029.75;5138438;23;20177;-90
2022/11/08 01:52:52;;;;;;;7.35;4.85;;;;;;;8.64;93.86;98023.81;5137918;23;20178;-90
2022/11/08 01:55:09;;;;;;;7.57;5.30;;;;;;;8.60;93.48;98020.56;5112984;23;20175;-90
2022/11/08 01:57:17;;;;;;;7.63;5.55;;;;;;;8.58;92.83;98013.78;5112673;23;20174;-89
2022/11/08 01:59:20;;;;;;;7.63;5.90;;;;;;;8.56;92.97;98018.25;5114086;23;20166;-91
2022/11/08 02:01:23;;;;;;;8.50;5.60;;;;;;;8.55;93.29;98017.44;5138113;23;20527;-90
2022/11/08 02:03:27;;;;;;;6.83;4.97;;;;;;;8.54;93.37;98010.56;5137471;23;21227;-91
2022/11/08 02:05:30;;;;;;;7.63;5.28;;;;;;;8.53;92.80;98010.66;5112761;23;20656;-90
2022/11/08 02:07:34;;;;;;;9.38;5.47;;;;;;;8.51;93.46;98013.34;5113150;23;20706;-91
2022/11/08 02:09:40;;;;;;;8.90;6.10;;;;;;;8.49;93.15;97997.03;5112851;23;20182;-90
2022/11/08 02:11:44;;;;;;;9.80;5.50;;;;;;;8.50;92.87;97997.84;5112792;23;20182;-90
2022/11/08 02:13:47;;;;;;;7.13;5.00;;;;;;;8.46;92.87;97985.97;5139900;23;20614;-90
2022/11/08 02:15:50;;;;;;;9.00;5.10;;;;;;;8.45;92.80;97992.94;5136090;23;20692;-90
2022/11/08 02:17:54;;;;;;;10.45;5.68;;;;;;;8.44;92.54;97995.63;5113626;23;20689;-90
2022/11/08 02:19:57;;;;;;;8.40;5.53;;;;;;;8.42;94.04;97983.63;5139679;23;20228;-90
2022/11/08 02:22:04;;;;;;;12.18;5.20;;;;;;;8.41;93.52;97979.41;5113773;23;20242;-90
2022/11/08 02:24:10;;;;;;;6.13;4.68;;;;;;;8.40;93.28;97982.91;5137716;23;20595;-90
2022/11/08 02:26:13;;;;;;;6.00;4.40;;;;;;;8.39;93.36;97982.09;5137483;23;20162;-90
2022/11/08 02:28:16;;;;;;;8.88;5.35;;;;;;;8.34;93.85;97971.13;5113769;23;20713;-90
2022/11/08 02:30:20;;;;;;;7.65;4.95;;;;;;;8.33;92.87;97969.47;5113016;23;20253;-90
2022/11/08 02:32:24;;;;;;;8.80;4.95;;;;;;;8.31;93.48;97965.28;5139768;22;20220;-90
2022/11/08 02:34:29;;;;;;;6.97;5.00;;;;;;;8.28;93.38;97971.50;5113870;23;20241;-90
2022/11/08 02:36:32;;;;;;;6.43;5.18;;;;;;;8.26;92.54;97968.16;5138579;23;20182;-90
2022/11/08 02:38:39;;;;;;;5.90;4.50;;;;;;;8.26;92.97;97965.56;5137084;22;20186;-90
2022/11/08 02:40:47;;;;;;;7.03;4.88;;;;;;;8.25;94.06;97960.47;5138811;23;21063;-90
2022/11/08 02:42:50;;;;;;;7.45;4.90;;;;;;;8.26;93.36;97959.56;5114883;23;20705;-90
2022/11/08 02:44:53;;;;;;;6.00;5.03;;;;;;;8.24;94.17;97961.38;5114493;23;20595;-89
2022/11/08 02:46:57;;;;;;;6.27;4.50;;;;;;;8.23;92.98;97955.38;5164132;22;20185;-90
2022/11/08 02:49:00;;;;;;;7.20;4.32;;;;;;;8.22;93.46;97953.69;5114596;23;20624;-90
2022/11/08 02:51:03;;;;;;;7.78;4.30;;;;;;;8.23;92.83;97950.16;5114815;23;20202;-91
2022/11/08 02:53:08;;;;;;;5.05;4.13;;;;;;;8.20;93.11;97950.34;5140108;23;20248;-90
2022/11/08 02:55:11;;;;;;;8.50;4.88;;;;;;;8.20;94.09;97945.16;5114407;23;20649;-89
2022/11/08 02:57:15;;;;;;;9.35;4.60;;;;;;;8.19;94.13;97942.66;5139064;23;20219;-90
2022/11/08 02:59:18;;;;;;;5.70;4.78;;;;;;;8.19;94.51;97947.84;5139557;23;20202;-90
2022/11/08 03:01:21;;;;;;;7.32;4.35;;;;;;;8.18;94.08;97944.44;5114073;23;20242;-89
2022/11/08 03:03:24;;;;;;;7.80;4.85;;;;;;;8.18;94.05;97938.41;5114356;23;20190;-89
2022/11/08 03:05:28;;;;;;;4.75;3.95;;;;;;;8.16;94.08;97941.09;5113969;23;20551;-89
2022/11/08 03:07:32;;;;;;;8.98;4.55;;;;;;;8.14;93.36;97945.53;5138552;23;20170;-90
2022/11/08 03:09:35;;;;;;;5.80;4.40;;;;;;;8.13;93.56;97938.69;5140608;23;20224;-90
2022/11/08 03:11:38;;;;;;;7.60;4.35;;;;;;;8.13;92.75;97937.84;5139050;23;20167;-89
2022/11/08 03:13:42;;;;;;;5.35;3.80;;;;;;;8.10;92.65;97936.25;5139264;23;20324;-90
2022/11/08 03:15:45;;;;;;;5.97;4.38;;;;;;;8.11;93.20;97939.66;5138893;23;20181;-90
2022/11/08 03:17:48;;;;;;;8.23;4.78;;;;;;;8.08;94.46;97945.88;5114358;23;20178;-90
2022/11/08 03:19:52;;;;;;;4.75;3.78;;;;;;;8.08;92.78;97945.88;5139357;23;20179;-90
2022/11/08 03:21:55;;;;;;;6.72;3.92;;;;;;;8.06;94.27;97945.13;5113578;23;20174;-90
2022/11/08 03:23:58;;;;;;;5.53;4.20;;;;;;;8.04;94.12;97938.34;5115050;23;20182;-90
2022/11/08 03:26:02;;;;;;;5.25;4.32;;;;;;;8.02;93.78;97933.25;5114122;23;20194;-90
2022/11/08 03:28:07;;;;;;;10.52;4.57;;;;;;;8.03;93.83;97936.72;5139636;23;20201;-90
2022/11/08 03:30:12;;;;;;;6.05;4.18;;;;;;;8.02;93.46;97929.84;5139558;23;20177;-90
2022/11/08 03:32:16;;;;;;;5.80;4.18;;;;;;;8.01;93.00;97928.16;5139329;23;20212;-90
2022/11/08 03:34:19;;;;;;;8.85;4.35;;;;;;;7.99;94.03;97936.03;5138976;23;20189;-90
2022/11/08 03:36:22;;;;;;;7.90;4.80;;;;;;;7.97;94.06;97934.50;5114379;23;20182;-90
2022/11/08 03:38:25;;;;;;;6.45;4.03;;;;;;;7.96;93.85;97929.38;5137756;23;20174;-89
2022/11/08 03:40:28;;;;;;;4.50;3.88;;;;;;;7.94;93.70;97931.22;5113841;23;20611;-89
2022/11/08 03:42:31;;;;;;;4.93;3.80;;;;;;;7.92;92.23;97931.31;5113117;23;20235;-90
2022/11/08 03:44:34;;;;;;;7.72;4.05;;;;;;;7.88;92.78;97940.22;5114457;23;20183;-90
2022/11/08 03:46:39;;;;;;;6.07;4.03;;;;;;;7.87;93.82;97925.56;5139441;23;20178;-89
2022/11/08 03:48:42;;;;;;;5.13;4.03;;;;;;;7.86;92.32;97928.25;5113981;23;20207;-90
2022/11/08 03:50:45;;;;;;;8.18;4.15;;;;;;;7.86;94.09;97936.88;5115236;23;20182;-89
2022/11/08 03:52:50;;;;;;;4.50;3.58;;;;;;;7.85;92.90;97939.56;5114086;23;20178;-89
2022/11/08 03:54:53;;;;;;;6.15;3.70;;;;;;;7.84;93.56;97943.09;5139971;22;20177;-90
2022/11/08 03:56:56;;;;;;;3.90;3.50;;;;;;;7.84;93.72;97943.09;5138126;23;20248;-90
2022/11/08 03:58:59;;;;;;;4.78;3.90;;;;;;;7.83;92.25;97933.63;5139115;23;20562;-90
2022/11/08 04:01:03;;;;;;;6.40;4.18;;;;;;;7.82;93.71;97937.16;5114081;23;20237;-90
2022/11/08 04:03:09;;;;;;;7.95;4.07;;;;;;;7.82;92.50;97931.94;5138957;23;20193;-91
2022/11/08 04:05:13;;;;;;;6.78;3.63;;;;;;;7.80;92.13;97934.63;5114621;23;20206;-90
2022/11/08 04:07:16;;;;;;;6.78;4.30;;;;;;;7.78;93.65;97935.69;5114269;23;20181;-90
2022/11/08 04:09:19;;;;;;;7.75;3.75;;;;;;;7.77;92.25;97934.00;5114097;23;20289;-90
2022/11/08 04:16:05;;;;;;;7.88;3.63;;;;;;;7.72;92.38;97933.44;5114256;23;20598;-90
2022/11/08 04:22:51;;;;;;;4.50;3.57;;;;;;;7.69;92.82;97931.03;5114162;23;20171;-90
2022/11/08 04:24:54;;;;;;;6.18;4.05;;;;;;;7.67;93.32;97923.34;5138488;23;20942;-89
2022/11/08 04:26:57;;;;;;;4.60;3.10;;;;;;;7.66;93.60;97926.84;5139210;23;20626;-90
2022/11/08 04:29:01;;;;;;;6.15;4.85;;;;;;;7.66;93.89;97928.63;5138273;23;20198;-90
2022/11/08 04:31:06;;;;;;;5.13;3.83;;;;;;;7.64;92.21;97928.72;5112270;23;20177;-89
2022/11/08 04:33:10;;;;;;;4.45;3.65;;;;;;;7.62;92.97;97924.53;5138841;23;20186;-89
2022/11/08 04:35:13;;;;;;;5.10;3.60;;;;;;;7.60;93.12;97931.56;5112833;23;20178;-90
2022/11/08 04:37:16;;;;;;;5.82;3.92;;;;;;;7.59;93.34;97930.75;5138719;23;20177;-90
2022/11/08 04:39:19;;;;;;;5.32;3.65;;;;;;;7.61;93.10;97930.66;5115018;23;20171;-90
2022/11/08 04:41:24;;;;;;;6.82;3.67;;;;;;;7.61;93.84;97930.66;5113939;23;20179;-89
2022/11/08 04:43:27;;;;;;;4.82;3.92;;;;;;;7.59;93.25;97919.53;5113623;23;20201;-90
2022/11/08 04:45:30;;;;;;;4.60;3.30;;;;;;;7.59;92.55;97919.53;5113880;23;20191;-90
2022/11/08 04:47:33;;;;;;;4.65;3.50;;;;;;;7.61;92.65;97917.69;5139448;23;20181;-89
2022/11/08 04:49:44;;;;;;;5.85;4.03;;;;;;;7.59;92.93;97919.53;5139752;23;20206;-89
2022/11/08 04:51:47;;;;;;;6.20;3.70;;;;;;;7.58;92.60;97912.69;5113049;23;20198;-90
2022/11/08 04:53:50;;;;;;;5.95;4.07;;;;;;;7.56;92.54;97917.97;5140372;23;20174;-89
2022/11/08 04:55:59;;;;;;;7.07;3.80;;;;;;;7.56;92.30;97910.19;5113150;23;20179;-90
2022/11/08 04:58:02;;;;;;;8.27;3.45;;;;;;;7.56;93.10;97911.91;5114878;23;20184;-90
2022/11/08 05:00:07;;;;;;;6.35;3.53;;;;;;;7.56;92.46;97899.81;5114228;23;20267;-89
2022/11/08 05:02:11;;;;;;;6.25;3.38;;;;;;;7.57;92.89;97898.03;5139610;23;20182;-89
2022/11/08 05:04:14;;;;;;;9.65;3.50;;;;;;;7.57;94.01;97892.84;5113817;23;20221;-90
2022/11/08 05:06:20;;;;;;;4.05;3.60;;;;;;;7.56;92.81;97891.16;5111767;23;20178;-89
2022/11/08 05:08:23;;;;;;;8.90;3.43;;;;;;;7.55;93.34;97886.91;5138266;23;20507;-89
2022/11/08 05:10:26;;;;;;;6.28;3.80;;;;;;;7.51;92.34;97880.22;5113421;23;20604;-89
2022/11/08 05:12:29;;;;;;;5.78;3.55;;;;;;;7.49;91.81;97866.53;5112909;23;20648;-90
2022/11/08 05:14:32;;;;;;;4.75;3.40;;;;;;;7.48;92.75;97870.03;5112946;23;20917;-90
2022/11/08 05:16:35;;;;;;;3.92;3.30;;;;;;;7.48;92.40;97872.63;5112933;23;20179;-90
2022/11/08 05:18:38;;;;;;;5.32;3.10;;;;;;;7.47;91.91;97867.53;5140956;22;20650;-89
2022/11/08 05:23:23;;;;;;;6.18;3.42;;;;;;;7.47;93.12;97863.16;5112936;23;20225;-90
2022/11/08 05:25:26;;;;;;;5.07;3.67;;;;;;;7.46;91.50;97876.22;5114421;23;20627;-90
2022/11/08 05:27:29;;;;;;;5.68;3.80;;;;;;;7.41;92.17;97870.50;5137294;23;20181;-89
2022/11/08 05:29:33;;;;;;;4.80;3.70;;;;;;;7.41;91.73;97868.72;5136585;23;20800;-89
2022/11/08 05:31:44;;;;;;;4.30;3.38;;;;;;;7.38;92.27;97868.06;5112323;23;20713;-90
2022/11/08 05:33:48;;;;;;;6.40;4.10;;;;;;;7.37;91.73;97866.44;5112876;23;20240;-90
2022/11/08 05:35:51;;;;;;;5.18;3.33;;;;;;;7.34;91.89;97870.03;5113113;23;20229;-89
2022/11/08 05:37:54;;;;;;;5.53;3.78;;;;;;;7.31;93.16;97875.41;5137756;23;20182;-91
2022/11/08 05:39:59;;;;;;;5.55;3.70;;;;;;;7.31;92.65;97875.41;5113724;23;20185;-89
2022/11/08 05:42:04;;;;;;;6.07;3.20;;;;;;;7.29;92.18;97874.66;5138133;23;20698;-89
2022/11/08 05:44:07;;;;;;;5.30;3.70;;;;;;;7.30;91.57;97873.72;5113327;23;20179;-90
2022/11/08 05:46:10;;;;;;;7.00;4.15;;;;;;;7.27;92.14;97876.50;5113998;23;20207;-89
2022/11/08 05:48:13;;;;;;;5.28;3.90;;;;;;;7.24;91.91;97875.84;5138389;23;20178;-88
2022/11/08 05:50:17;;;;;;;7.55;3.85;;;;;;;7.24;92.32;97881.03;5137992;23;20194;-89
2022/11/08 05:52:21;;;;;;;5.55;3.70;;;;;;;7.22;92.08;97875.09;5113511;23;20179;-91
2022/11/08 05:54:24;;;;;;;5.20;3.78;;;;;;;7.22;92.47;97873.34;5112721;23;20175;-89
2022/11/08 05:56:29;;;;;;;5.82;4.18;;;;;;;7.22;92.01;97872.53;5112892;23;20609;-89
2022/11/08 05:58:33;;;;;;;5.68;3.83;;;;;;;7.22;93.27;97878.53;5138420;23;20211;-90
2022/11/08 06:00:36;;;;;;;5.28;3.83;;;;;;;7.24;92.18;97870.66;5137258;23;20173;-90
2022/11/08 06:02:40;;;;;;;5.43;3.80;;;;;;;7.26;91.87;97868.78;5137375;23;20181;-90
2022/11/08 06:04:43;;;;;;;5.43;3.95;;;;;;;7.25;91.85;97878.34;5112399;23;21055;-90
2022/11/08 06:06:46;;;;;;;8.05;4.47;;;;;;;7.26;92.95;97874.84;5138256;23;20200;-90
2022/11/08 06:08:50;;;;;;;4.80;3.80;;;;;;;7.27;93.31;97879.09;5113878;23;20205;-89
2022/11/08 06:11:02;;;;;;;8.52;3.78;;;;;;;7.27;92.39;97876.50;5113400;23;20232;-90
2022/11/08 06:13:06;;;;;;;6.25;4.45;;;;;;;7.28;93.13;97878.16;5138630;23;20173;-90
2022/11/08 06:15:10;;;;;;;5.50;4.05;;;;;;;7.32;92.65;97878.81;5138723;23;20178;-90
2022/11/08 06:17:13;;;;;;;5.95;3.95;;;;;;;7.30;93.23;97880.66;5113921;23;20178;-90
2022/11/08 06:19:16;;;;;;;5.57;4.10;;;;;;;7.31;92.67;97877.16;5114308;23;20214;-91
2022/11/08 06:21:20;;;;;;;7.65;3.75;;;;;;;7.29;92.89;97879.00;5137843;23;20174;-90
2022/11/08 06:23:23;;;;;;;8.48;4.22;;;;;;;7.29;93.78;97874.66;5139128;23;20220;-90
2022/11/08 06:25:27;;;;;;;6.18;4.25;;;;;;;7.30;92.73;97868.53;5113272;23;20218;-89
2022/11/08 06:27:30;;;;;;;6.75;3.88;;;;;;;7.31;93.20;97867.63;5161398;22;20260;-90
2022/11/08 06:29:35;;;;;;;7.28;3.88;;;;;;;7.32;93.68;97869.28;5112801;23;20185;-90
2022/11/08 06:31:38;;;;;;;6.82;4.53;;;;;;;7.32;91.94;97874.47;5136147;23;20233;-90
2022/11/08 06:33:45;;;;;;;7.65;4.53;;;;;;;7.33;92.87;97870.13;5137186;23;20203;-90
2022/11/08 06:35:48;;;;;;;5.53;3.90;;;;;;;7.32;92.95;97864.09;5113733;23;20175;-90
2022/11/08 06:37:51;;;;;;;6.03;4.30;;;;;;;7.32;92.91;97865.84;5112863;23;20206;-90
2022/11/08 06:40:01;;;;;;;9.45;4.93;;;;;;;7.36;92.82;97873.34;5114225;23;20174;-90
2022/11/08 06:42:05;;;;;;;5.93;4.45;;;;;;;7.38;91.58;97871.53;5112273;23;20178;-88
2022/11/08 06:44:08;;;;;;;6.82;4.20;;;;;;;7.41;92.74;97873.09;5111757;23;20646;-89
2022/11/08 06:46:12;;;;;;;6.30;3.75;;;;;;;7.51;93.04;97882.81;5111784;23;20270;-88
2022/11/08 06:48:15;;;;;;;5.95;4.80;;;;;;;7.68;92.59;97882.63;5113248;23;20527;-90
2022/11/08 06:50:19;;;;;;;4.65;3.90;;;;;;;7.81;91.52;97884.41;5115178;23;20198;-89
2022/11/08 06:52:22;;;;;;;8.57;4.53;;;;;;;7.92;92.93;97883.75;5139214;23;20553;-89
2022/11/08 06:54:25;;;;;;;7.80;4.40;;;;;;;7.98;91.37;97884.22;5139276;23;20685;-90
2022/11/08 06:56:29;;;;;;;6.82;4.15;;;;;;;8.04;92.36;97889.88;5113041;23;20206;-89
2022/11/08 06:58:32;;;;;;;6.43;4.22;;;;;;;8.04;91.25;97881.22;5139081;23;20189;-88
2022/11/08 07:00:35;;;;;;;7.82;4.60;;;;;;;7.99;91.70;97884.13;5114003;23;20611;-88
2022/11/08 07:02:39;;;;;;;6.47;4.35;;;;;;;7.96;90.80;97884.31;5113129;23;20231;-89
2022/11/08 07:04:42;;;;;;;8.00;4.30;;;;;;;7.99;92.22;97878.91;5137859;23;20256;-88
2022/11/08 07:06:45;;;;;;;8.25;4.57;;;;;;;8.02;91.59;97883.09;5137270;23;20178;-88
2022/11/08 07:08:49;;;;;;;8.00;5.15;;;;;;;8.15;91.61;97884.06;5113512;23;20183;-87
2022/11/08 07:10:54;;;;;;;7.97;4.88;;;;;;;8.29;92.15;97878.84;5139191;23;20284;-88
2022/11/08 07:12:59;;;;;;;5.88;4.30;;;;;;;8.39;91.86;97880.75;5109726;23;20285;-88
2022/11/08 07:15:02;;;;;;;8.00;4.97;;;;;;;8.44;92.02;97876.91;5108745;23;20266;-89
2022/11/08 07:17:05;;;;;;;9.35;5.10;;;;;;;8.41;90.98;97873.69;5113189;23;20182;-90
2022/11/08 07:19:09;;;;;;;8.30;5.18;;;;;;;8.38;91.62;97880.84;5110466;23;20178;-88
2022/11/08 07:21:13;;;;;;;8.65;5.70;;;;;;;8.37;91.67;97874.81;5136745;23;20163;-88
2022/11/08 07:23:16;;;;;;;8.05;5.20;;;;;;;8.40;91.94;97885.00;5135958;23;20179;-88
2022/11/08 07:25:19;;;;;;;8.40;5.35;;;;;;;8.47;92.73;97891.50;5134777;23;21041;-88
2022/11/08 07:27:22;;;;;;;8.43;5.95;;;;;;;8.46;92.32;97877.69;5137947;23;20174;-88
2022/11/08 07:29:25;;;;;;;8.60;5.85;;;;;;;8.44;91.42;97881.28;5139784;23;20216;-88
2022/11/08 07:31:28;;;;;;;11.38;5.82;;;;;;;8.41;91.64;97878.88;5111202;23;20230;-88
2022/11/08 07:33:31;;;;;;;9.00;5.25;;;;;;;8.44;92.06;97890.88;5133019;23;20217;-88
2022/11/08 07:35:35;;;;;;;9.07;4.72;;;;;;;8.45;91.62;97896.78;5162406;23;20181;-88
2022/11/08 07:37:39;;;;;;;8.35;4.88;;;;;;;8.49;91.77;97895.66;5138645;23;20607;-88
2022/11/08 07:39:42;;;;;;;7.25;4.80;;;;;;;8.56;93.23;97902.13;5113659;23;20237;-88
2022/11/08 07:41:45;;;;;;;6.35;5.03;;;;;;;8.71;92.63;97910.72;5114200;23;20552;-89
2022/11/08 07:43:48;;;;;;;7.15;4.95;;;;;;;8.79;92.78;97908.47;5140962;23;20184;-88
2022/11/08 07:45:56;;;;;;;10.90;5.22;;;;;;;8.81;92.38;97912.66;5139558;23;20248;-88
2022/11/08 07:47:59;;;;;;;6.72;4.90;;;;;;;8.81;91.92;97904.00;5140361;23;20205;-88
2022/11/08 07:50:03;;;;;;;7.80;4.65;;;;;;;8.89;92.83;97910.38;5140586;23;20181;-89
2022/11/08 07:52:07;;;;;;;8.95;5.50;;;;;;;9.04;93.23;97907.59;5140623;23;20304;-88
2022/11/08 07:54:11;;;;;;;7.63;5.60;;;;;;;9.34;92.97;97912.59;5113733;23;20186;-89
2022/11/08 07:56:14;;;;;;;7.97;6.03;;;;;;;9.53;92.83;97914.69;5114798;23;20202;-88
2022/11/08 07:58:17;;;;;;;9.00;6.03;;;;;;;9.59;92.42;97913.41;5139466;23;20181;-89
2022/11/08 08:00:20;;;;;;;10.70;6.00;;;;;;;9.66;92.43;97923.31;5139003;23;20893;-89
2022/11/08 08:02:23;;;;;;;8.55;6.35;;;;;;;9.80;91.84;97918.00;5114491;23;20659;-88
2022/11/08 08:04:28;;;;;;;7.80;6.20;;;;;;;9.89;91.96;97918.25;5138955;23;20202;-88
2022/11/08 08:06:32;;;;;;;9.45;6.03;;;;;;;9.83;90.32;97916.97;5113405;23;20203;-90
2022/11/08 08:08:36;;;;;;;9.27;5.28;;;;;;;9.67;89.81;97918.97;5139855;23;20237;-91
2022/11/08 08:10:40;;;;;;;6.10;4.90;;;;;;;9.59;90.79;97916.03;5138075;23;20170;-88
2022/11/08 08:12:43;;;;;;;8.03;5.60;;;;;;;9.79;91.62;97918.13;5110962;23;20578;-89
2022/11/08 08:14:46;;;;;;;6.50;5.37;;;;;;;9.90;90.41;97912.06;5113452;23;21121;-90
2022/11/08 08:16:49;;;;;;;9.15;5.90;;;;;;;9.90;90.13;97913.84;5114799;23;20964;-89
2022/11/08 08:18:52;;;;;;;9.60;5.60;;;;;;;9.85;90.24;97906.34;5139752;23;20174;-89
2022/11/08 08:20:58;;;;;;;7.90;5.60;;;;;;;9.86;90.56;97908.03;5113260;23;20574;-89
2022/11/08 08:23:01;;;;;;;7.87;6.27;;;;;;;10.10;91.71;97914.19;5139614;23;20577;-88
2022/11/08 08:25:07;;;;;;;10.23;6.60;;;;;;;10.42;90.62;97904.97;5163720;23;20622;-89
2022/11/08 08:27:11;;;;;;;11.90;7.47;;;;;;;10.63;89.06;97903.41;5139026;23;20182;-89
2022/11/08 08:29:14;;;;;;;10.10;7.10;;;;;;;10.71;89.50;97888.88;5140836;23;20501;-89
2022/11/08 08:31:17;;;;;;;13.53;10.90;;;;;;;10.85;88.88;97858.25;5138345;23;20665;-89
2022/11/08 08:33:20;;;;;;;15.73;10.83;;;;;;;10.79;88.80;97847.41;5112165;23;20578;-89
2022/11/08 08:35:33;;;;;;;19.63;13.30;;;;;;;10.90;90.28;97856.13;5113345;23;20594;-89
2022/11/08 08:37:36;;;;;;;15.03;11.27;;;;;;;11.02;91.82;97864.81;5113190;23;20626;-89
2022/11/08 08:39:39;;;;;;;14.60;9.97;;;;;;;11.13;91.83;97859.66;5139374;23;20585;-89
2022/11/08 08:41:44;;;;;;;12.17;8.30;;;;;;;11.15;90.94;97868.22;5113324;23;21110;-89
2022/11/08 08:43:47;;;;;;;9.13;6.00;;;;;;;11.37;92.38;97874.31;5139923;23;20581;-88
2022/11/08 08:45:50;;;;;;;7.90;5.93;;;;;;;11.65;93.02;97880.00;5114014;23;20589;-89
2022/11/08 08:47:53;;;;;;;8.20;5.97;;;;;;;11.93;93.27;97882.97;5141076;23;20851;-89
2022/11/08 08:49:56;;;;;;;6.60;5.90;;;;;;;12.07;92.80;97893.22;5115889;23;20618;-89
2022/11/08 08:51:59;;;;;;;6.83;4.93;;;;;;;12.18;91.79;97901.06;5137557;23;20605;-87
2022/11/08 08:54:02;;;;;;;6.53;4.73;;;;;;;12.43;91.81;97903.41;5140220;22;20585;-87
2022/11/08 08:56:06;;;;;;;6.53;4.57;;;;;;;12.64;92.95;97912.19;5112980;23;20614;-86
2022/11/08 08:58:11;;;;;;;6.20;4.90;;;;;;;12.76;90.82;97906.81;5114082;23;20590;-86
2022/11/08 09:00:15;;;;;;;8.10;6.10;;;;;;;12.87;91.26;97914.66;5114766;23;20632;-87
2022/11/08 09:02:38;;;;;;;10.73;5.80;;;;;;;12.91;90.79;97916.09;5113104;23;20971;-87
2022/11/08 09:04:44;;;;;;;8.70;6.20;;;;;;;13.06;90.26;97913.06;5139920;23;20667;-87
2022/11/08 09:06:47;;;;;;;13.73;10.20;;;;;;;13.26;90.25;97920.13;5139321;23;20581;-87
2022/11/08 09:08:51;;;;;;;7.23;4.97;;;;;;;13.47;89.09;97913.13;5113303;23;20700;-87
2022/11/08 09:10:54;;;;;;;10.27;7.40;;;;;;;13.52;88.80;97917.03;5113453;23;21128;-87
2022/11/08 09:12:57;;;;;;;8.73;7.00;;;;;;;13.44;87.53;97914.22;5141422;23;20652;-90
2022/11/08 09:15:02;;;;;;;8.37;6.03;;;;;;;13.31;87.70;97902.25;5114636;23;21002;-90
2022/11/08 09:17:05;;;;;;;8.03;4.53;;;;;;;13.19;87.45;97904.06;5114230;23;20582;-91
2022/11/08 09:19:08;;;;;;;7.17;4.77;;;;;;;13.12;87.75;97911.72;5140064;23;20566;-90
2022/11/08 09:21:11;;;;;;;8.73;6.33;;;;;;;13.04;87.84;97914.97;5115891;23;20593;-91
2022/11/08 09:23:15;;;;;;;8.03;6.90;;;;;;;13.04;88.61;97914.97;5139086;23;20592;-90
2022/11/08 09:25:19;;;;;;;7.23;5.03;;;;;;;13.04;89.43;97917.59;5114449;23;20634;-90
2022/11/08 09:27:22;;;;;;;8.17;5.00;;;;;;;13.09;89.09;97919.84;5114465;23;21024;-89
2022/11/08 09:29:25;;;;;;;6.90;4.57;;;;;;;13.14;90.16;97922.91;5140172;23;20632;-90
2022/11/08 09:31:30;;;;;;;5.30;4.80;;;;;;;13.23;89.68;97930.88;5139287;23;20658;-88
2022/11/08 09:33:33;;;;;;;6.20;5.20;;;;;;;13.27;89.78;97935.69;5138472;23;20567;-89
2022/11/08 09:35:36;;;;;;;7.87;4.90;;;;;;;13.42;89.75;97942.31;5114375;23;20663;-88
2022/11/08 09:37:39;;;;;;;9.00;6.97;;;;;;;13.64;89.93;97946.66;5112531;23;20582;-88
2022/11/08 09:39:46;;;;;;;17.00;12.43;;;;;;;13.86;89.38;97945.56;5111815;23;20582;-88
2022/11/08 09:42:08;;;;;;;7.50;5.37;;;;;;;13.98;86.84;97948.94;5137957;23;20556;-88
2022/11/08 09:44:25;;;;;;;9.57;6.43;;;;;;;14.07;87.07;97940.31;5138063;23;20612;-87
2022/11/08 09:46:35;;;;;;;6.33;4.60;;;;;;;14.19;86.37;97945.34;5139793;23;20595;-88
2022/11/08 09:48:41;;;;;;;4.90;4.20;;;;;;;14.38;86.08;97945.44;5137099;23;21185;-87
2022/11/08 09:50:45;;;;;;;9.00;5.17;;;;;;;14.50;85.41;97949.66;5112018;23;21131;-87
2022/11/08 09:52:51;;;;;;;8.87;7.60;;;;;;;14.42;85.99;97947.69;5113738;23;20615;-87
2022/11/08 09:55:04;;;;;;;5.57;4.30;;;;;;;14.45;86.88;97941.31;5113637;23;21294;-87
2022/11/08 09:57:14;;;;;;;5.43;4.20;;;;;;;14.55;86.31;97940.41;5137292;23;20904;-87
2022/11/08 09:59:30;;;;;;;5.47;4.20;;;;;;;14.72;86.06;97948.50;5164253;23;20579;-87
2022/11/08 10:01:35;;;;;;;6.53;4.13;;;;;;;14.88;85.81;97951.41;5137201;23;21010;-88
2022/11/08 10:03:39;;;;;;;8.87;4.43;;;;;;;15.01;85.04;97951.19;5138578;23;20619;-88
2022/11/08 10:05:44;;;;;;;9.50;4.23;;;;;;;15.08;84.67;97955.78;5138375;23;20581;-87
2022/11/08 10:07:54;;;;;;;6.60;3.77;;;;;;;15.23;81.43;97951.78;5138887;23;20588;-87
2022/11/08 10:10:13;;;;;;;7.83;4.73;;;;;;;15.28;80.82;97955.69;5138401;23;20582;-87
2022/11/08 10:12:21;;;;;;;7.17;4.80;;;;;;;15.22;81.65;97956.22;5112118;23;20647;-87